Date,TemperatureHighF,TemperatureAvgF,TemperatureLowF,DewpointHighF,DewpointAvgF,DewpointLowF,HumidityHigh,HumidityAvg,HumidityLow,PressureMaxIn,PressureMinIn,WindSpeedMaxMPH,WindSpeedAvgMPH,GustSpeedMaxMPH,PrecipitationSumIn
2014-1-1,51,41,33,38,35,32,100,81,51,30.25,29.99,8,1,8,0.00
2014-1-2,50,44,39,48,43,29,100,94,71,30.00,29.53,28,3,28,0.20
2014-1-3,38,29,24,29,14,9,71,52,34,30.31,29.66,31,6,34,0.00
2014-1-4,36,28,21,30,19,16,91,69,47,30.36,30.12,9,1,10,0.01
2014-1-5,42,38,33,42,38,29,100,99,84,30.12,29.65,11,2,11,0.39
2014-1-6,48,36,16,47,29,-1,100,77,46,30.12,29.57,26,7,26,0.10
2014-1-7,26,18,11,11,5,-2,67,55,39,30.34,30.12,13,3,15,0.10
2014-1-8,43,29,17,18,13,5,86,55,23,30.43,30.32,10,1,10,0.00
2014-1-9,52,37,26,38,24,14,83,61,30,30.42,30.30,6,1,10,0.01
2014-1-10,44,42,40,43,42,38,100,98,81,30.30,29.94,13,3,13,0.65
2014-1-11,64,52,43,64,52,43,100,100,100,29.95,29.52,36,4,39,1.29
2014-1-12,55,46,37,50,40,35,100,81,49,30.04,29.64,17,4,18,0.00
2014-1-13,59,47,38,48,40,37,100,78,50,30.05,29.82,11,3,18,0.10
2014-1-14,56,48,43,53,47,43,100,96,75,29.84,29.69,12,2,12,0.07
2014-1-15,57,44,34,44,39,33,100,84,56,29.84,29.71,26,3,26,0.00
2014-1-16,44,37,30,35,27,23,91,70,49,29.92,29.82,13,4,18,0.01
2014-1-17,53,41,31,34,27,21,70,57,40,29.90,29.75,27,5,30,0.00
2014-1-18,40,35,29,25,19,13,69,53,42,29.99,29.79,18,5,21,0.00
2014-1-19,52,42,34,30,25,19,65,51,40,29.88,29.82,19,5,21,0.00
2014-1-20,62,47,33,32,30,27,85,55,30,29.83,29.69,18,5,20,0.00
2014-1-21,55,44,32,36,29,18,75,56,43,29.74,29.43,27,6,29,0.00
2014-1-22,35,30,24,19,13,5,64,50,29,29.94,29.73,14,4,17,0.00
2014-1-23,41,31,23,16,12,3,71,47,30,30.27,29.94,19,4,20,0.00
2014-1-24,27,22,14,6,0,-5,48,38,24,30.49,30.13,14,4,16,0.00
2014-1-25,41,31,20,20,11,1,56,43,30,30.14,29.64,25,8,33,0.00
2014-1-26,52,40,27,32,25,19,79,56,30,29.85,29.73,19,5,21,0.00
2014-1-27,63,52,40,38,34,23,63,52,38,29.93,29.68,21,6,21,0.00
2014-1-28,40,30,22,23,10,0,94,47,26,30.16,29.93,19,6,21,0.00
2014-1-29,30,24,19,20,14,8,90,69,42,30.23,30.05,14,3,14,0.00
2014-1-30,34,21,13,17,13,9,95,74,36,30.29,30.09,11,1,11,0.00
2014-1-31,54,35,19,24,18,14,96,58,23,30.13,30.02,12,2,12,0.04
2014-2-1,57,43,27,42,29,22,87,62,25,30.12,30.00,10,1,10,0.01
2014-2-2,66,52,41,53,48,41,100,86,62,30.03,29.88,18,4,19,0.00
2014-2-3,69,58,47,64,55,41,100,89,67,30.09,29.77,23,6,23,0.36
2014-2-4,46,40,37,41,38,35,100,94,80,30.23,29.99,16,4,17,0.30
2014-2-5,56,44,37,53,42,30,100,92,60,30.00,29.74,20,4,22,0.11
2014-2-6,43,38,32,31,27,22,79,65,49,30.22,29.99,17,3,20,0.00
2014-2-7,50,41,30,33,31,28,97,71,46,30.23,30.12,10,1,10,0.00
2014-2-8,54,44,37,38,35,32,92,72,50,30.15,29.98,10,2,11,0.00
2014-2-9,58,47,38,44,39,35,98,76,53,30.04,29.85,23,4,24,0.00
2014-2-10,46,38,34,38,36,34,100,91,66,30.11,29.92,14,3,14,0.08
2014-2-11,35,32,29,35,31,24,100,96,69,30.23,30.10,9,3,14,0.00
2014-2-12,29,26,23,29,24,20,100,95,80,30.28,29.71,21,5,21,0.00
2014-2-13,38,31,26,38,30,26,100,98,91,29.71,29.51,15,4,16,0.14
2014-2-14,51,40,28,35,32,28,100,76,52,29.75,29.58,16,4,16,0.69
2014-2-15,46,40,32,40,32,15,100,76,32,29.95,29.50,31,6,32,0.29
2014-2-16,53,41,30,32,27,23,84,60,38,30.02,29.92,13,3,14,0.06
2014-2-17,47,40,33,32,29,25,89,66,48,30.23,30.02,18,4,18,0.00
2014-2-18,62,48,33,40,34,28,94,63,29,30.17,30.00,10,2,11,0.00
2014-2-19,65,58,52,56,52,40,94,81,65,30.01,29.94,11,3,13,0.64
2014-2-20,75,64,55,60,56,49,100,77,48,30.04,29.82,29,4,29,0.39
2014-2-21,65,61,47,63,55,35,100,84,43,29.87,29.69,22,6,22,0.96
2014-3-2,62,60,59,48,47,46,64,62,59,29.85,29.80,17,6,19,0.00
2014-3-3,59,50,27,54,44,24,100,84,64,30.14,29.71,21,5,21,0.12
2014-3-4,40,31,20,24,15,9,87,54,36,30.25,30.07,17,4,18,0.00
2014-3-5,50,40,33,29,23,17,73,52,39,30.14,30.00,11,3,12,0.00
2014-3-6,40,35,31,33,24,17,100,68,46,30.24,29.89,15,7,27,0.57
2014-3-7,41,36,33,41,36,33,100,100,100,29.91,29.84,21,6,27,0.92
2014-3-8,64,48,32,52,41,32,100,81,49,30.01,29.89,17,4,18,0.00
2014-3-9,67,60,46,45,40,36,91,50,34,30.00,29.90,13,2,13,0.00
2014-3-10,69,55,37,42,36,31,86,52,27,29.94,29.74,11,3,16,0.00
2014-3-11,75,60,42,48,41,34,95,55,23,29.75,29.59,18,3,18,0.00
2014-3-12,72,60,44,63,51,25,100,74,41,29.62,29.22,27,9,38,0.10
2014-3-13,48,41,33,26,15,6,54,37,20,30.13,29.61,31,6,31,0.00
2014-3-14,61,45,27,26,21,15,77,43,22,30.22,29.98,20,3,26,0.01
2014-3-15,70,57,44,38,33,26,61,42,26,30.01,29.89,18,4,18,0.01
2014-3-16,53,50,44,50,45,37,100,86,59,29.94,29.66,14,3,16,1.77
2014-3-17,42,34,31,42,34,30,100,100,100,29.87,29.69,22,5,22,0.30
2014-3-18,39,34,29,39,34,29,100,100,100,30.06,29.85,17,4,19,0.05
2014-3-19,50,42,37,47,41,37,100,98,89,30.10,29.90,14,3,16,0.01
2014-3-20,65,53,41,50,37,23,100,63,22,29.97,29.85,17,4,19,0.00
2014-3-21,68,53,34,35,29,21,87,43,23,30.08,29.94,15,2,16,0.00
2014-3-22,73,59,42,47,40,31,87,53,34,29.97,29.84,21,4,21,0.00
2014-3-23,59,48,37,46,42,33,100,82,38,30.04,29.82,18,3,19,0.04
2014-3-24,53,42,31,37,26,16,100,62,27,30.17,29.96,11,3,13,0.00
2014-3-25,46,40,34,41,32,22,99,75,41,29.97,29.73,30,5,34,0.05
2014-3-26,47,37,26,22,18,11,79,48,24,30.21,29.95,21,4,21,0.00
2014-3-27,59,44,28,42,26,20,82,52,25,30.34,30.14,18,3,18,0.00
2014-3-28,65,55,46,59,52,42,100,91,74,30.17,30.00,19,3,21,0.27
2014-3-29,66,59,53,64,58,53,100,99,91,30.02,29.55,22,4,23,0.46
2014-3-30,56,49,42,53,33,25,100,56,31,29.94,29.60,30,8,32,0.00
2014-3-31,71,54,36,36,28,20,86,45,15,30.07,29.93,10,2,11,0.00
2014-4-1,80,63,45,41,34,28,69,38,15,30.05,29.91,15,3,22,0.00
2014-4-2,84,67,53,41,36,28,57,35,17,30.00,29.88,20,4,20,0.00
2014-4-3,84,70,58,57,43,32,65,40,18,29.96,29.76,20,4,23,0.00
2014-4-4,79,69,58,60,53,45,75,57,43,29.78,29.61,29,6,29,0.00
2014-4-5,71,63,54,54,43,30,95,52,29,29.89,29.69,14,4,23,0.00
2014-4-6,59,54,48,40,35,29,60,48,36,30.06,29.88,18,4,20,0.00
2014-4-7,58,51,45,58,49,39,100,93,58,29.96,29.59,18,4,21,1.38
2014-4-8,65,58,54,60,50,38,100,78,48,29.64,29.53,18,4,19,0.03
2014-4-9,66,55,44,43,39,31,88,58,29,30.02,29.64,14,3,18,0.06
2014-4-10,73,57,39,44,38,33,97,55,25,30.18,30.02,17,2,18,0.00
2014-4-11,76,62,48,50,44,37,78,53,36,30.14,29.97,26,6,27,0.00
2014-4-12,80,66,50,53,48,42,95,57,30,30.11,29.97,15,2,16,0.00
2014-4-13,80,68,56,59,54,50,86,63,44,30.07,29.92,16,4,17,0.00
2014-4-14,75,67,59,65,60,53,97,79,55,29.96,29.65,17,4,17,0.00
2014-4-15,70,57,38,68,54,29,100,92,65,29.91,29.48,19,5,21,1.41
2014-4-16,54,42,31,34,27,21,81,57,35,30.31,29.91,16,4,17,0.00
2014-4-17,61,47,33,38,31,26,90,60,28,30.42,30.27,15,3,16,0.00
2014-4-18,57,50,44,48,42,34,100,77,56,30.31,30.06,13,3,14,0.46
2014-4-19,49,47,46,49,47,46,100,100,100,30.11,30.00,16,4,20,1.76
2014-4-20,67,56,46,48,40,31,100,64,28,30.16,30.06,21,4,21,0.02
2014-4-21,74,58,43,44,39,29,88,54,25,30.09,29.83,11,2,12,0.00
2014-4-22,80,62,51,61,52,41,100,72,36,29.83,29.63,18,3,18,0.00
2014-4-23,75,63,53,59,41,23,100,55,15,29.85,29.63,16,3,18,0.00
2014-4-24,73,60,50,49,37,29,68,44,29,30.02,29.84,13,3,14,0.00
2014-4-25,78,66,55,66,56,47,100,74,44,29.85,29.61,16,4,24,0.00
2014-4-26,80,66,50,51,46,39,92,52,25,29.92,29.75,13,2,14,0.00
2014-4-27,86,69,52,56,51,44,88,56,26,29.89,29.76,14,2,14,0.00
2014-4-28,83,73,63,68,62,56,97,71,51,29.81,29.69,16,3,18,0.00
2014-4-29,79,66,58,67,61,55,100,86,57,29.85,29.71,17,4,17,0.00
2014-4-30,77,68,60,69,64,60,100,88,68,29.85,29.73,23,3,24,0.31
2014-5-1,77,68,58,64,58,47,95,72,46,29.80,29.67,25,5,25,0.00
2014-5-2,68,59,50,52,48,42,97,69,41,29.85,29.74,13,2,14,0.00
2014-5-3,74,62,49,52,47,40,100,61,32,29.83,29.74,17,3,17,0.00
2014-5-4,83,68,50,53,49,44,93,56,29,29.92,29.74,19,3,19,0.00
2014-5-5,87,73,58,59,53,49,84,53,30,29.86,29.68,17,2,18,0.00
2014-5-6,85,72,57,64,54,50,93,58,32,29.83,29.71,14,2,15,0.01
2014-5-7,84,72,59,64,58,54,92,63,39,29.98,29.81,13,2,13,0.01
2014-5-8,87,75,62,61,56,52,78,55,35,30.06,29.95,22,4,24,0.00
2014-5-9,87,73,64,67,62,55,87,71,45,30.03,29.90,18,3,21,0.00
2014-5-10,83,68,62,70,64,62,100,89,60,29.98,29.88,14,2,18,0.32
2014-5-11,82,69,60,70,62,59,100,82,48,30.02,29.91,8,1,8,0.00
2014-5-12,87,74,61,70,63,59,100,74,42,30.05,29.95,13,2,13,0.00
2014-5-13,88,76,65,68,65,63,96,70,48,30.02,29.91,11,2,12,0.00
2014-5-14,85,75,67,68,63,56,97,69,38,30.01,29.86,18,4,19,0.00
2014-5-15,72,67,60,69,66,60,100,97,75,29.89,29.68,13,3,19,3.14
2014-5-16,69,59,50,60,51,43,100,76,44,29.94,29.72,20,4,21,0.00
2014-5-17,70,58,45,50,46,41,99,68,40,30.06,29.93,16,2,19,0.00
2014-5-18,66,58,53,54,50,47,95,77,55,30.12,30.02,8,1,8,0.00
2014-5-19,74,61,49,57,50,46,100,71,39,30.18,30.08,12,2,12,0.00
2014-5-20,77,66,53,62,56,48,95,72,54,30.17,29.96,16,3,16,0.00
2014-5-21,85,73,59,66,62,58,98,72,46,29.98,29.80,16,3,19,0.00
2014-5-22,88,77,68,67,62,57,75,61,38,29.87,29.76,19,4,19,0.00
2014-5-23,74,69,66,66,64,63,96,86,72,29.87,29.75,7,0,7,0.00
2014-5-31,77,72,66,64,62,60,93,73,58,30.02,29.91,11,2,13,0.01
2014-6-1,77,68,60,64,58,54,97,72,48,30.15,30.02,14,3,16,0.00
2014-6-2,80,68,55,60,57,53,98,70,44,30.12,29.97,9,1,9,0.00
2014-6-3,86,72,59,66,61,56,95,71,48,29.98,29.80,11,2,13,0.00
2014-6-4,91,78,65,72,67,64,100,73,47,29.82,29.63,14,2,14,0.00
2014-6-5,91,80,72,72,68,63,91,68,44,29.71,29.61,18,3,18,0.00
2014-6-6,86,76,68,67,62,57,79,62,45,29.79,29.68,10,2,11,0.00
2014-6-7,81,74,70,71,67,60,100,79,60,29.86,29.75,14,3,15,0.00
2014-6-8,75,71,67,75,70,67,100,97,88,29.83,29.70,18,3,19,0.64
2014-6-9,88,77,71,73,71,68,100,83,56,29.76,29.67,11,1,11,0.00
2014-6-10,93,80,69,74,70,65,100,75,46,29.79,29.71,14,2,14,0.00
2014-6-11,86,74,67,71,67,64,100,81,56,29.83,29.68,16,2,17,1.26
2014-6-12,82,71,67,74,69,67,100,93,64,29.77,29.66,11,1,24,0.00
2014-6-13,85,74,66,70,67,62,100,81,56,29.74,29.65,23,2,26,0.00
2014-6-14,87,75,65,68,66,63,100,75,48,29.88,29.73,10,1,10,0.00
2014-6-15,90,77,66,68,63,58,89,65,41,30.00,29.87,8,2,10,0.00
2014-6-16,90,78,69,74,70,65,100,79,49,30.03,29.93,13,1,16,0.00
2014-6-17,92,80,70,74,70,65,99,74,46,30.02,29.88,14,2,14,0.00
2014-6-18,95,79,70,74,68,64,91,71,44,29.94,29.85,27,2,27,0.00
2014-6-19,94,81,70,74,69,65,92,68,45,29.93,29.82,9,2,13,0.00
2014-6-20,93,78,67,71,67,63,98,71,42,29.89,29.76,13,1,13,0.00
2014-6-21,90,78,70,73,69,64,96,75,47,29.78,29.64,14,1,14,0.00
2014-6-22,86,78,69,70,67,61,100,73,46,29.79,29.66,12,2,12,0.00
2014-6-23,85,77,70,71,68,66,97,76,56,29.93,29.79,16,3,16,0.00
2014-6-24,82,75,71,74,71,69,99,88,71,29.95,29.83,14,2,15,0.00
2014-6-25,87,76,69,73,71,68,100,84,58,29.85,29.75,21,3,21,0.00
2014-6-26,90,79,69,71,67,62,98,70,45,29.85,29.75,11,2,12,0.00
2014-6-27,87,76,69,73,70,67,100,84,59,29.95,29.80,10,2,11,0.82
2014-6-28,81,72,68,74,70,68,100,94,73,30.03,29.91,15,2,17,0.01
2014-6-29,81,74,67,70,65,59,100,78,51,30.06,29.93,12,1,13,0.00
2014-6-30,86,75,67,73,69,65,100,83,59,29.94,29.79,16,2,16,0.00
2014-7-1,92,79,70,76,72,70,100,84,58,29.83,29.72,11,2,11,0.00
2014-7-2,93,82,73,76,72,70,93,74,54,29.81,29.74,12,2,14,0.00
2014-7-3,91,79,70,75,72,70,100,79,52,29.84,29.67,12,2,12,0.45
2014-7-4,83,73,64,70,62,54,100,73,40,30.01,29.79,12,1,13,0.00
2014-7-5,84,72,63,62,54,51,77,55,36,30.11,30.00,17,2,18,0.00
2014-7-6,86,74,63,67,64,60,99,73,47,30.02,29.87,9,1,11,0.00
2014-7-7,87,77,68,74,69,65,100,79,54,29.91,29.76,13,2,14,0.00
2014-7-8,93,80,71,71,68,63,97,69,40,29.88,29.74,20,4,23,0.00
2014-7-9,91,75,69,74,69,65,100,81,50,29.86,29.79,16,2,18,0.60
2014-7-10,82,73,69,76,71,69,100,94,73,29.94,29.83,10,1,10,0.00
2014-7-11,84,75,68,73,70,67,100,87,60,30.02,29.90,11,2,11,0.00
2014-7-12,88,77,68,74,68,63,100,77,48,30.04,29.94,9,2,10,0.00
2014-7-13,92,79,70,73,69,64,100,73,45,29.98,29.83,11,2,14,0.00
2014-7-14,94,81,72,74,70,66,99,72,44,29.86,29.70,17,3,17,0.00
2014-7-15,91,78,67,75,70,66,100,78,47,29.74,29.57,19,3,19,1.26
2014-7-16,80,71,64,68,64,56,100,81,47,29.76,29.64,10,1,13,0.08
2014-7-17,82,72,63,66,59,54,90,64,46,29.90,29.76,13,1,13,0.00
2014-7-18,84,72,67,70,65,60,95,79,46,29.99,29.90,8,2,13,0.00
2014-7-19,72,67,64,66,63,59,100,87,68,29.98,29.90,10,2,10,0.03
2014-7-20,79,70,64,73,68,62,100,93,80,29.94,29.84,8,1,9,0.01
2014-7-21,73,71,69,73,71,69,100,100,99,29.96,29.86,11,1,12,1.53
2014-7-22,70,69,69,70,69,69,100,100,100,29.97,29.93,9,1,9,0.00
2014-7-24,75,70,69,75,70,69,100,100,100,29.78,29.66,21,1,21,0.25
2014-7-25,81,62,65,100,71,60,100,84,49,29.89,29.78,10,1,11,0.00
2014-8-1,461,0,200,100,100,100,61,61,61,30.04,30.04,3,0,5,0.48
2014-8-13,84,79,70,68,64,59,88,62,45,29.91,29.81,12,2,13,0.00
2014-8-14,84,74,62,67,62,55,97,71,43,29.98,29.87,13,1,13,0.00
2014-8-15,87,76,65,71,66,62,100,74,47,29.95,29.85,11,1,13,0.00
2014-8-16,87,78,71,76,72,68,100,84,61,30.05,29.88,11,2,11,0.00
2014-8-17,91,80,71,76,71,66,100,77,46,30.04,29.96,13,2,13,0.00
2014-8-18,91,80,73,77,72,66,96,77,49,29.97,29.80,11,3,20,0.00
2014-8-19,89,77,73,76,73,70,100,90,62,29.92,29.82,18,2,19,1.37
2014-8-20,89,79,70,84,74,70,100,86,58,30.04,29.91,8,1,10,0.00
2014-8-21,93,82,72,76,71,62,100,72,41,30.12,30.00,8,1,9,0.00
2014-8-22,93,84,75,78,73,68,96,73,46,30.07,29.95,11,1,11,0.00